Giddings, Texas
Current Conditions -  °F | °C
As of 7:55 AM on Friday 31 Oct 2014 (Local Time) from KGYB Reporting Station
Clear Clear  
Wind Chill: 59°   Ceiling: Unl
Heat Index: 59°   Visibility: 10mi
Dew Point: 53°   Wind: 7mph
Humidity: 82%   Direction: 360°N
Pressure: 30.23"   Gusts: NA
Location:  30.18°N, 96.94°W
Report Text: KGYB 311255Z AUTO 36006KT 10SM CLR 15/12 A3023 RMK AO2 T01480117
Loading
Personal Weather Stations






























Interactive Weather Map
Tropical Storm Tracking
New forecast layout! Learn more

10-Day Weather Forecast

Advertisements
Track Severe Weather on mobile